sensor_id;sensor_type;location;lat;lon;timestamp;P1;durP1;ratioP1;P2;durP2;ratioP2
54307;SDS011;40208;39.778;2.710;2024-01-16T00:00:51;16.55;;;8.32;;
54307;SDS011;40208;39.778;2.710;2024-01-16T00:03:36;23.85;;;11.70;;
54307;SDS011;40208;39.778;2.710;2024-01-16T00:06:22;17.67;;;11.00;;
54307;SDS011;40208;39.778;2.710;2024-01-16T00:09:07;15.38;;;9.57;;
54307;SDS011;40208;39.778;2.710;2024-01-16T00:11:52;12.90;;;7.50;;
54307;SDS011;40208;39.778;2.710;2024-01-16T00:14:37;15.38;;;7.43;;
54307;SDS011;40208;39.778;2.710;2024-01-16T00:17:22;13.20;;;6.88;;
54307;SDS011;40208;39.778;2.710;2024-01-16T00:20:07;15.80;;;8.07;;
54307;SDS011;40208;39.778;2.710;2024-01-16T00:22:52;23.30;;;11.80;;
54307;SDS011;40208;39.778;2.710;2024-01-16T00:25:37;16.65;;;11.25;;
54307;SDS011;40208;39.778;2.710;2024-01-16T00:28:22;14.95;;;9.38;;
54307;SDS011;40208;39.778;2.710;2024-01-16T00:31:07;13.75;;;8.75;;
54307;SDS011;40208;39.778;2.710;2024-01-16T00:33:52;23.83;;;12.82;;
54307;SDS011;40208;39.778;2.710;2024-01-16T00:36:37;35.83;;;17.33;;
54307;SDS011;40208;39.778;2.710;2024-01-16T00:39:22;29.58;;;15.70;;
54307;SDS011;40208;39.778;2.710;2024-01-16T00:42:07;23.67;;;14.20;;
54307;SDS011;40208;39.778;2.710;2024-01-16T00:44:52;20.55;;;14.50;;
54307;SDS011;40208;39.778;2.710;2024-01-16T00:47:37;25.70;;;15.35;;
54307;SDS011;40208;39.778;2.710;2024-01-16T00:50:21;28.00;;;15.50;;
54307;SDS011;40208;39.778;2.710;2024-01-16T00:53:06;26.55;;;13.95;;
54307;SDS011;40208;39.778;2.710;2024-01-16T00:55:51;17.48;;;10.05;;
54307;SDS011;40208;39.778;2.710;2024-01-16T00:58:38;11.45;;;7.90;;
54307;SDS011;40208;39.778;2.710;2024-01-16T01:01:23;18.83;;;10.15;;
54307;SDS011;40208;39.778;2.710;2024-01-16T01:04:08;16.08;;;9.00;;
54307;SDS011;40208;39.778;2.710;2024-01-16T01:06:53;25.95;;;9.75;;
54307;SDS011;40208;39.778;2.710;2024-01-16T01:09:38;16.88;;;9.00;;
54307;SDS011;40208;39.778;2.710;2024-01-16T01:12:23;17.65;;;9.23;;
54307;SDS011;40208;39.778;2.710;2024-01-16T01:15:07;12.23;;;7.68;;
54307;SDS011;40208;39.778;2.710;2024-01-16T01:17:52;14.50;;;8.30;;
54307;SDS011;40208;39.778;2.710;2024-01-16T01:20:38;14.60;;;9.57;;
54307;SDS011;40208;39.778;2.710;2024-01-16T01:23:23;20.42;;;10.98;;
54307;SDS011;40208;39.778;2.710;2024-01-16T01:26:08;16.15;;;11.10;;
54307;SDS011;40208;39.778;2.710;2024-01-16T01:28:53;19.85;;;12.25;;
54307;SDS011;40208;39.778;2.710;2024-01-16T01:31:37;20.98;;;12.18;;
54307;SDS011;40208;39.778;2.710;2024-01-16T01:34:22;20.20;;;10.48;;
54307;SDS011;40208;39.778;2.710;2024-01-16T01:37:07;16.13;;;9.35;;
54307;SDS011;40208;39.778;2.710;2024-01-16T01:39:52;17.08;;;8.43;;
54307;SDS011;40208;39.778;2.710;2024-01-16T01:42:36;20.33;;;7.50;;
54307;SDS011;40208;39.778;2.710;2024-01-16T01:45:21;14.43;;;7.13;;
54307;SDS011;40208;39.778;2.710;2024-01-16T01:48:06;16.33;;;8.40;;
54307;SDS011;40208;39.778;2.710;2024-01-16T01:50:51;22.40;;;12.10;;
54307;SDS011;40208;39.778;2.710;2024-01-16T01:53:36;20.42;;;11.27;;
54307;SDS011;40208;39.778;2.710;2024-01-16T01:56:23;13.27;;;9.13;;
54307;SDS011;40208;39.778;2.710;2024-01-16T01:59:08;13.80;;;7.82;;
54307;SDS011;40208;39.778;2.710;2024-01-16T02:01:53;11.02;;;7.57;;
54307;SDS011;40208;39.778;2.710;2024-01-16T02:04:38;19.80;;;9.77;;
54307;SDS011;40208;39.778;2.710;2024-01-16T02:07:25;23.30;;;12.48;;
54307;SDS011;40208;39.778;2.710;2024-01-16T02:10:09;32.90;;;18.13;;
54307;SDS011;40208;39.778;2.710;2024-01-16T02:12:54;35.33;;;18.33;;
54307;SDS011;40208;39.778;2.710;2024-01-16T02:15:39;38.63;;;18.02;;
54307;SDS011;40208;39.778;2.710;2024-01-16T02:18:25;28.75;;;15.35;;
54307;SDS011;40208;39.778;2.710;2024-01-16T02:21:10;26.05;;;15.82;;
54307;SDS011;40208;39.778;2.710;2024-01-16T02:23:56;31.83;;;15.45;;
54307;SDS011;40208;39.778;2.710;2024-01-16T02:26:41;26.50;;;12.93;;
54307;SDS011;40208;39.778;2.710;2024-01-16T02:29:25;23.52;;;12.88;;
54307;SDS011;40208;39.778;2.710;2024-01-16T02:32:12;32.17;;;12.43;;
54307;SDS011;40208;39.778;2.710;2024-01-16T02:34:57;17.60;;;9.63;;
54307;SDS011;40208;39.778;2.710;2024-01-16T02:37:42;19.77;;;10.15;;
54307;SDS011;40208;39.778;2.710;2024-01-16T02:40:26;18.63;;;10.25;;
54307;SDS011;40208;39.778;2.710;2024-01-16T02:43:11;16.60;;;9.40;;
54307;SDS011;40208;39.778;2.710;2024-01-16T02:45:56;12.73;;;8.70;;
54307;SDS011;40208;39.778;2.710;2024-01-16T02:48:42;18.23;;;8.57;;
54307;SDS011;40208;39.778;2.710;2024-01-16T02:51:27;14.82;;;7.93;;
54307;SDS011;40208;39.778;2.710;2024-01-16T02:54:12;10.50;;;6.50;;
54307;SDS011;40208;39.778;2.710;2024-01-16T02:56:57;9.40;;;5.47;;
54307;SDS011;40208;39.778;2.710;2024-01-16T02:59:44;8.88;;;4.85;;
54307;SDS011;40208;39.778;2.710;2024-01-16T03:02:29;12.32;;;6.50;;
54307;SDS011;40208;39.778;2.710;2024-01-16T03:05:14;21.80;;;11.63;;
54307;SDS011;40208;39.778;2.710;2024-01-16T03:07:59;16.00;;;10.25;;
54307;SDS011;40208;39.778;2.710;2024-01-16T03:10:44;15.77;;;8.75;;
54307;SDS011;40208;39.778;2.710;2024-01-16T03:13:29;18.27;;;9.60;;
54307;SDS011;40208;39.778;2.710;2024-01-16T03:16:14;16.15;;;8.98;;
54307;SDS011;40208;39.778;2.710;2024-01-16T03:18:59;14.65;;;9.25;;
54307;SDS011;40208;39.778;2.710;2024-01-16T03:21:43;15.38;;;7.72;;
54307;SDS011;40208;39.778;2.710;2024-01-16T03:24:28;15.20;;;7.90;;
54307;SDS011;40208;39.778;2.710;2024-01-16T03:27:13;14.05;;;7.72;;
54307;SDS011;40208;39.778;2.710;2024-01-16T03:29:58;13.90;;;7.72;;
54307;SDS011;40208;39.778;2.710;2024-01-16T03:32:43;15.70;;;7.68;;
54307;SDS011;40208;39.778;2.710;2024-01-16T03:35:28;11.10;;;6.30;;
54307;SDS011;40208;39.778;2.710;2024-01-16T03:38:13;12.48;;;6.10;;
54307;SDS011;40208;39.778;2.710;2024-01-16T03:40:58;14.50;;;6.65;;
54307;SDS011;40208;39.778;2.710;2024-01-16T03:43:43;10.60;;;6.40;;
54307;SDS011;40208;39.778;2.710;2024-01-16T03:46:28;15.85;;;6.88;;
54307;SDS011;40208;39.778;2.710;2024-01-16T03:49:13;12.15;;;6.03;;
54307;SDS011;40208;39.778;2.710;2024-01-16T03:51:58;12.85;;;7.32;;
54307;SDS011;40208;39.778;2.710;2024-01-16T03:54:43;11.48;;;7.18;;
54307;SDS011;40208;39.778;2.710;2024-01-16T03:57:28;10.98;;;6.38;;
54307;SDS011;40208;39.778;2.710;2024-01-16T04:00:13;12.95;;;6.72;;
54307;SDS011;40208;39.778;2.710;2024-01-16T04:02:58;13.70;;;6.93;;
54307;SDS011;40208;39.778;2.710;2024-01-16T04:05:43;12.82;;;6.88;;
54307;SDS011;40208;39.778;2.710;2024-01-16T04:08:27;14.23;;;5.57;;
54307;SDS011;40208;39.778;2.710;2024-01-16T04:11:13;13.52;;;6.45;;
54307;SDS011;40208;39.778;2.710;2024-01-16T04:13:58;12.25;;;7.40;;
54307;SDS011;40208;39.778;2.710;2024-01-16T04:16:43;10.52;;;6.95;;
54307;SDS011;40208;39.778;2.710;2024-01-16T04:19:28;14.13;;;7.32;;
54307;SDS011;40208;39.778;2.710;2024-01-16T04:22:13;11.40;;;7.15;;
54307;SDS011;40208;39.778;2.710;2024-01-16T04:24:58;12.65;;;6.50;;
54307;SDS011;40208;39.778;2.710;2024-01-16T04:27:43;12.88;;;7.38;;
54307;SDS011;40208;39.778;2.710;2024-01-16T04:30:28;9.35;;;6.45;;
54307;SDS011;40208;39.778;2.710;2024-01-16T04:33:12;14.95;;;7.18;;
54307;SDS011;40208;39.778;2.710;2024-01-16T04:35:57;11.82;;;7.28;;
54307;SDS011;40208;39.778;2.710;2024-01-16T04:38:42;13.82;;;7.63;;
54307;SDS011;40208;39.778;2.710;2024-01-16T04:41:26;14.32;;;7.20;;
54307;SDS011;40208;39.778;2.710;2024-01-16T04:44:11;9.77;;;5.65;;
54307;SDS011;40208;39.778;2.710;2024-01-16T04:46:56;9.65;;;5.15;;
54307;SDS011;40208;39.778;2.710;2024-01-16T04:49:42;9.90;;;4.65;;
54307;SDS011;40208;39.778;2.710;2024-01-16T04:52:27;9.77;;;4.68;;
54307;SDS011;40208;39.778;2.710;2024-01-16T04:55:12;9.50;;;5.45;;
54307;SDS011;40208;39.778;2.710;2024-01-16T04:57:57;7.38;;;5.32;;
54307;SDS011;40208;39.778;2.710;2024-01-16T05:00:42;12.43;;;5.03;;
54307;SDS011;40208;39.778;2.710;2024-01-16T05:03:27;13.60;;;6.03;;
54307;SDS011;40208;39.778;2.710;2024-01-16T05:06:15;10.00;;;5.90;;
54307;SDS011;40208;39.778;2.710;2024-01-16T05:09:00;8.07;;;5.43;;
54307;SDS011;40208;39.778;2.710;2024-01-16T05:11:44;9.82;;;5.93;;
54307;SDS011;40208;39.778;2.710;2024-01-16T05:14:29;9.63;;;5.70;;
54307;SDS011;40208;39.778;2.710;2024-01-16T05:17:14;11.85;;;5.72;;
54307;SDS011;40208;39.778;2.710;2024-01-16T05:19:59;9.85;;;5.13;;
54307;SDS011;40208;39.778;2.710;2024-01-16T05:22:44;9.48;;;5.10;;
54307;SDS011;40208;39.778;2.710;2024-01-16T05:25:28;9.02;;;4.70;;
54307;SDS011;40208;39.778;2.710;2024-01-16T05:28:14;9.80;;;5.15;;
54307;SDS011;40208;39.778;2.710;2024-01-16T05:30:59;10.95;;;5.07;;
54307;SDS011;40208;39.778;2.710;2024-01-16T05:33:44;14.27;;;6.05;;
54307;SDS011;40208;39.778;2.710;2024-01-16T05:36:29;11.38;;;5.45;;
54307;SDS011;40208;39.778;2.710;2024-01-16T05:39:13;11.70;;;4.60;;
54307;SDS011;40208;39.778;2.710;2024-01-16T05:41:58;10.27;;;5.43;;
54307;SDS011;40208;39.778;2.710;2024-01-16T05:44:43;11.65;;;8.00;;
54307;SDS011;40208;39.778;2.710;2024-01-16T05:47:28;12.77;;;6.28;;
54307;SDS011;40208;39.778;2.710;2024-01-16T05:50:14;12.18;;;7.15;;
54307;SDS011;40208;39.778;2.710;2024-01-16T05:53:02;10.10;;;5.90;;
54307;SDS011;40208;39.778;2.710;2024-01-16T05:55:47;12.93;;;7.03;;
54307;SDS011;40208;39.778;2.710;2024-01-16T05:58:32;8.77;;;5.32;;
54307;SDS011;40208;39.778;2.710;2024-01-16T06:01:23;9.50;;;4.57;;
54307;SDS011;40208;39.778;2.710;2024-01-16T06:04:07;5.43;;;3.30;;
54307;SDS011;40208;39.778;2.710;2024-01-16T06:06:52;3.88;;;2.35;;
54307;SDS011;40208;39.778;2.710;2024-01-16T06:09:38;5.70;;;2.95;;
54307;SDS011;40208;39.778;2.710;2024-01-16T06:12:26;10.20;;;6.75;;
54307;SDS011;40208;39.778;2.710;2024-01-16T06:15:11;15.90;;;6.70;;
54307;SDS011;40208;39.778;2.710;2024-01-16T06:17:56;12.30;;;7.05;;
54307;SDS011;40208;39.778;2.710;2024-01-16T06:20:41;13.77;;;6.82;;
54307;SDS011;40208;39.778;2.710;2024-01-16T06:23:26;15.20;;;7.88;;
54307;SDS011;40208;39.778;2.710;2024-01-16T06:26:10;15.55;;;8.38;;
54307;SDS011;40208;39.778;2.710;2024-01-16T06:28:55;12.32;;;8.55;;
54307;SDS011;40208;39.778;2.710;2024-01-16T06:31:40;15.20;;;7.95;;
54307;SDS011;40208;39.778;2.710;2024-01-16T06:34:25;15.63;;;7.93;;
54307;SDS011;40208;39.778;2.710;2024-01-16T06:37:10;14.30;;;6.85;;
54307;SDS011;40208;39.778;2.710;2024-01-16T06:39:55;12.43;;;5.85;;
54307;SDS011;40208;39.778;2.710;2024-01-16T06:42:39;9.93;;;5.97;;
54307;SDS011;40208;39.778;2.710;2024-01-16T06:45:24;9.13;;;5.90;;
54307;SDS011;40208;39.778;2.710;2024-01-16T06:48:11;14.23;;;5.78;;
54307;SDS011;40208;39.778;2.710;2024-01-16T06:50:55;23.38;;;5.65;;
54307;SDS011;40208;39.778;2.710;2024-01-16T06:53:40;11.40;;;5.82;;
54307;SDS011;40208;39.778;2.710;2024-01-16T06:56:25;9.85;;;5.35;;
54307;SDS011;40208;39.778;2.710;2024-01-16T06:59:10;14.38;;;6.10;;
54307;SDS011;40208;39.778;2.710;2024-01-16T07:01:55;11.73;;;6.68;;
54307;SDS011;40208;39.778;2.710;2024-01-16T07:04:40;14.45;;;6.05;;
54307;SDS011;40208;39.778;2.710;2024-01-16T07:07:25;20.00;;;7.45;;
54307;SDS011;40208;39.778;2.710;2024-01-16T07:10:10;21.10;;;7.40;;
54307;SDS011;40208;39.778;2.710;2024-01-16T07:13:02;13.30;;;8.00;;
54307;SDS011;40208;39.778;2.710;2024-01-16T07:15:47;14.93;;;6.85;;
54307;SDS011;40208;39.778;2.710;2024-01-16T07:18:32;11.73;;;6.72;;
54307;SDS011;40208;39.778;2.710;2024-01-16T07:21:18;13.55;;;6.82;;
54307;SDS011;40208;39.778;2.710;2024-01-16T07:24:03;30.50;;;8.10;;
54307;SDS011;40208;39.778;2.710;2024-01-16T07:26:48;21.40;;;8.23;;
54307;SDS011;40208;39.778;2.710;2024-01-16T07:29:32;16.88;;;6.55;;
54307;SDS011;40208;39.778;2.710;2024-01-16T07:32:17;8.80;;;4.72;;
54307;SDS011;40208;39.778;2.710;2024-01-16T07:35:03;15.82;;;9.57;;
54307;SDS011;40208;39.778;2.710;2024-01-16T07:37:48;18.08;;;10.00;;
54307;SDS011;40208;39.778;2.710;2024-01-16T07:40:33;17.27;;;9.18;;
54307;SDS011;40208;39.778;2.710;2024-01-16T07:43:18;12.52;;;9.10;;
54307;SDS011;40208;39.778;2.710;2024-01-16T07:46:03;14.63;;;7.97;;
54307;SDS011;40208;39.778;2.710;2024-01-16T07:48:48;15.68;;;7.72;;
54307;SDS011;40208;39.778;2.710;2024-01-16T07:51:33;11.90;;;7.50;;
54307;SDS011;40208;39.778;2.710;2024-01-16T07:54:18;9.27;;;6.47;;
54307;SDS011;40208;39.778;2.710;2024-01-16T07:57:03;13.25;;;7.35;;
54307;SDS011;40208;39.778;2.710;2024-01-16T07:59:47;24.38;;;11.25;;
54307;SDS011;40208;39.778;2.710;2024-01-16T08:02:32;29.65;;;18.98;;
54307;SDS011;40208;39.778;2.710;2024-01-16T11:10:15;28.70;;;11.68;;
54307;SDS011;40208;39.778;2.710;2024-01-16T11:13:01;20.40;;;9.55;;
54307;SDS011;40208;39.778;2.710;2024-01-16T11:15:49;9.68;;;4.53;;
54307;SDS011;40208;39.778;2.710;2024-01-16T11:18:34;13.43;;;3.78;;
54307;SDS011;40208;39.778;2.710;2024-01-16T11:21:19;15.32;;;6.07;;
54307;SDS011;40208;39.778;2.710;2024-01-16T11:24:04;32.15;;;10.48;;
54307;SDS011;40208;39.778;2.710;2024-01-16T11:26:49;33.22;;;12.63;;
54307;SDS011;40208;39.778;2.710;2024-01-16T11:29:34;41.10;;;15.38;;
54307;SDS011;40208;39.778;2.710;2024-01-16T11:32:36;39.55;;;15.35;;
54307;SDS011;40208;39.778;2.710;2024-01-16T11:35:32;29.45;;;10.20;;
54307;SDS011;40208;39.778;2.710;2024-01-16T11:38:26;20.58;;;7.55;;
54307;SDS011;40208;39.778;2.710;2024-01-16T11:41:31;26.23;;;9.50;;
54307;SDS011;40208;39.778;2.710;2024-01-16T11:47:34;15.45;;;6.20;;
54307;SDS011;40208;39.778;2.710;2024-01-16T11:50:28;18.80;;;7.32;;
54307;SDS011;40208;39.778;2.710;2024-01-16T11:53:37;17.38;;;8.32;;
54307;SDS011;40208;39.778;2.710;2024-01-16T11:56:38;15.75;;;8.63;;
54307;SDS011;40208;39.778;2.710;2024-01-16T12:02:52;20.65;;;4.60;;
54307;SDS011;40208;39.778;2.710;2024-01-16T12:05:38;7.80;;;2.75;;
54307;SDS011;40208;39.778;2.710;2024-01-16T12:08:23;35.80;;;7.70;;
54307;SDS011;40208;39.778;2.710;2024-01-16T12:11:08;64.38;;;13.55;;
54307;SDS011;40208;39.778;2.710;2024-01-16T12:14:01;75.90;;;16.45;;
54307;SDS011;40208;39.778;2.710;2024-01-16T12:16:47;22.35;;;4.60;;
54307;SDS011;40208;39.778;2.710;2024-01-16T12:19:31;12.38;;;3.10;;
54307;SDS011;40208;39.778;2.710;2024-01-16T12:22:16;27.10;;;6.68;;
54307;SDS011;40208;39.778;2.710;2024-01-16T12:25:07;97.07;;;18.52;;
54307;SDS011;40208;39.778;2.710;2024-01-16T12:30:41;82.68;;;16.42;;
54307;SDS011;40208;39.778;2.710;2024-01-16T12:33:35;63.38;;;12.60;;
54307;SDS011;40208;39.778;2.710;2024-01-16T12:36:20;35.60;;;6.25;;
54307;SDS011;40208;39.778;2.710;2024-01-16T12:39:05;13.18;;;2.63;;
54307;SDS011;40208;39.778;2.710;2024-01-16T12:41:51;6.82;;;2.10;;
54307;SDS011;40208;39.778;2.710;2024-01-16T12:44:36;4.50;;;1.88;;
54307;SDS011;40208;39.778;2.710;2024-01-16T12:47:20;5.15;;;2.05;;
54307;SDS011;40208;39.778;2.710;2024-01-16T12:50:06;6.97;;;4.03;;
54307;SDS011;40208;39.778;2.710;2024-01-16T12:55:50;14.57;;;7.25;;
54307;SDS011;40208;39.778;2.710;2024-01-16T12:58:47;7.72;;;4.63;;
54307;SDS011;40208;39.778;2.710;2024-01-16T13:01:32;9.10;;;2.67;;
54307;SDS011;40208;39.778;2.710;2024-01-16T13:04:17;3.63;;;1.70;;
54307;SDS011;40208;39.778;2.710;2024-01-16T13:07:02;5.60;;;2.20;;
54307;SDS011;40208;39.778;2.710;2024-01-16T13:09:47;5.90;;;2.40;;
54307;SDS011;40208;39.778;2.710;2024-01-16T13:12:32;6.40;;;2.25;;
54307;SDS011;40208;39.778;2.710;2024-01-16T13:15:18;6.50;;;2.40;;
54307;SDS011;40208;39.778;2.710;2024-01-16T13:18:03;7.68;;;2.22;;
54307;SDS011;40208;39.778;2.710;2024-01-16T13:20:51;5.18;;;2.53;;
54307;SDS011;40208;39.778;2.710;2024-01-16T13:23:37;10.20;;;5.60;;
54307;SDS011;40208;39.778;2.710;2024-01-16T13:26:22;15.80;;;6.32;;
54307;SDS011;40208;39.778;2.710;2024-01-16T13:29:07;10.93;;;3.80;;
54307;SDS011;40208;39.778;2.710;2024-01-16T13:31:53;6.93;;;2.83;;
54307;SDS011;40208;39.778;2.710;2024-01-16T13:34:39;8.38;;;2.30;;
54307;SDS011;40208;39.778;2.710;2024-01-16T13:37:30;6.22;;;2.03;;
54307;SDS011;40208;39.778;2.710;2024-01-16T13:40:15;5.25;;;1.98;;
54307;SDS011;40208;39.778;2.710;2024-01-16T13:43:03;5.82;;;1.80;;
54307;SDS011;40208;39.778;2.710;2024-01-16T13:45:48;3.85;;;1.40;;
54307;SDS011;40208;39.778;2.710;2024-01-16T13:48:34;4.15;;;1.48;;
54307;SDS011;40208;39.778;2.710;2024-01-16T13:51:19;6.45;;;1.90;;
54307;SDS011;40208;39.778;2.710;2024-01-16T13:54:04;7.35;;;2.72;;
54307;SDS011;40208;39.778;2.710;2024-01-16T13:56:49;28.95;;;14.63;;
54307;SDS011;40208;39.778;2.710;2024-01-16T13:59:34;30.67;;;16.02;;
54307;SDS011;40208;39.778;2.710;2024-01-16T14:02:20;44.40;;;17.60;;
54307;SDS011;40208;39.778;2.710;2024-01-16T14:05:05;35.22;;;18.17;;
54307;SDS011;40208;39.778;2.710;2024-01-16T14:07:50;52.75;;;25.38;;
54307;SDS011;40208;39.778;2.710;2024-01-16T14:10:36;40.55;;;19.50;;
54307;SDS011;40208;39.778;2.710;2024-01-16T14:13:21;30.08;;;14.38;;
54307;SDS011;40208;39.778;2.710;2024-01-16T14:16:06;18.75;;;9.27;;
54307;SDS011;40208;39.778;2.710;2024-01-16T14:18:50;26.92;;;10.23;;
54307;SDS011;40208;39.778;2.710;2024-01-16T14:21:35;15.52;;;6.40;;
54307;SDS011;40208;39.778;2.710;2024-01-16T14:24:20;10.93;;;4.75;;
54307;SDS011;40208;39.778;2.710;2024-01-16T14:27:05;12.00;;;4.75;;
54307;SDS011;40208;39.778;2.710;2024-01-16T14:29:51;10.50;;;3.08;;
54307;SDS011;40208;39.778;2.710;2024-01-16T14:32:36;9.43;;;3.30;;
54307;SDS011;40208;39.778;2.710;2024-01-16T14:35:22;9.13;;;2.53;;
54307;SDS011;40208;39.778;2.710;2024-01-16T14:38:08;5.80;;;2.10;;
54307;SDS011;40208;39.778;2.710;2024-01-16T14:40:53;2.88;;;1.23;;
54307;SDS011;40208;39.778;2.710;2024-01-16T14:43:40;5.50;;;1.90;;
54307;SDS011;40208;39.778;2.710;2024-01-16T14:46:25;8.35;;;2.65;;
54307;SDS011;40208;39.778;2.710;2024-01-16T14:49:09;5.80;;;1.55;;
54307;SDS011;40208;39.778;2.710;2024-01-16T14:51:54;2.53;;;1.52;;
54307;SDS011;40208;39.778;2.710;2024-01-16T14:54:39;7.28;;;1.98;;
54307;SDS011;40208;39.778;2.710;2024-01-16T14:57:24;4.72;;;1.23;;
54307;SDS011;40208;39.778;2.710;2024-01-16T15:00:09;4.47;;;1.40;;
54307;SDS011;40208;39.778;2.710;2024-01-16T15:03:04;9.32;;;2.17;;
54307;SDS011;40208;39.778;2.710;2024-01-16T15:05:50;4.57;;;1.60;;
54307;SDS011;40208;39.778;2.710;2024-01-16T15:11:24;5.43;;;1.85;;
54307;SDS011;40208;39.778;2.710;2024-01-16T15:14:10;5.22;;;1.70;;
54307;SDS011;40208;39.778;2.710;2024-01-16T15:16:57;7.03;;;1.67;;
54307;SDS011;40208;39.778;2.710;2024-01-16T15:19:41;5.82;;;2.05;;
54307;SDS011;40208;39.778;2.710;2024-01-16T15:22:26;6.78;;;2.40;;
54307;SDS011;40208;39.778;2.710;2024-01-16T15:25:11;8.65;;;2.35;;
54307;SDS011;40208;39.778;2.710;2024-01-16T15:28:00;8.88;;;3.38;;
54307;SDS011;40208;39.778;2.710;2024-01-16T15:30:45;10.18;;;4.03;;
54307;SDS011;40208;39.778;2.710;2024-01-16T15:33:30;11.55;;;3.55;;
54307;SDS011;40208;39.778;2.710;2024-01-16T15:36:14;8.45;;;2.95;;
54307;SDS011;40208;39.778;2.710;2024-01-16T15:38:59;9.52;;;3.83;;
54307;SDS011;40208;39.778;2.710;2024-01-16T15:41:46;12.48;;;4.65;;
54307;SDS011;40208;39.778;2.710;2024-01-16T15:44:31;14.00;;;5.20;;
54307;SDS011;40208;39.778;2.710;2024-01-16T15:47:16;18.77;;;4.30;;
54307;SDS011;40208;39.778;2.710;2024-01-16T15:50:01;9.35;;;3.97;;
54307;SDS011;40208;39.778;2.710;2024-01-16T15:52:48;12.43;;;4.47;;
54307;SDS011;40208;39.778;2.710;2024-01-16T15:55:33;14.50;;;5.32;;
54307;SDS011;40208;39.778;2.710;2024-01-16T15:58:18;9.48;;;5.30;;
54307;SDS011;40208;39.778;2.710;2024-01-16T16:01:03;10.15;;;4.45;;
54307;SDS011;40208;39.778;2.710;2024-01-16T16:03:48;8.18;;;3.42;;
54307;SDS011;40208;39.778;2.710;2024-01-16T16:06:35;5.95;;;3.10;;
54307;SDS011;40208;39.778;2.710;2024-01-16T16:09:21;9.05;;;3.08;;
54307;SDS011;40208;39.778;2.710;2024-01-16T16:12:07;14.38;;;3.70;;
54307;SDS011;40208;39.778;2.710;2024-01-16T16:14:54;7.38;;;3.08;;
54307;SDS011;40208;39.778;2.710;2024-01-16T16:17:39;8.52;;;3.45;;
54307;SDS011;40208;39.778;2.710;2024-01-16T16:20:24;13.57;;;4.45;;
54307;SDS011;40208;39.778;2.710;2024-01-16T16:23:09;11.43;;;4.20;;
54307;SDS011;40208;39.778;2.710;2024-01-16T16:25:53;9.68;;;5.00;;
54307;SDS011;40208;39.778;2.710;2024-01-16T16:28:38;10.57;;;5.20;;
54307;SDS011;40208;39.778;2.710;2024-01-16T16:31:23;15.20;;;6.25;;
54307;SDS011;40208;39.778;2.710;2024-01-16T16:34:11;18.17;;;7.05;;
54307;SDS011;40208;39.778;2.710;2024-01-16T16:37:02;13.43;;;5.88;;
54307;SDS011;40208;39.778;2.710;2024-01-16T16:39:47;14.30;;;6.13;;
54307;SDS011;40208;39.778;2.710;2024-01-16T16:42:32;8.23;;;4.47;;
54307;SDS011;40208;39.778;2.710;2024-01-16T16:45:17;13.23;;;6.28;;
54307;SDS011;40208;39.778;2.710;2024-01-16T16:48:01;12.90;;;5.75;;
54307;SDS011;40208;39.778;2.710;2024-01-16T16:50:46;10.30;;;3.90;;
54307;SDS011;40208;39.778;2.710;2024-01-16T16:53:31;6.22;;;3.50;;
54307;SDS011;40208;39.778;2.710;2024-01-16T16:56:16;6.15;;;3.25;;
54307;SDS011;40208;39.778;2.710;2024-01-16T16:59:03;9.05;;;4.80;;
54307;SDS011;40208;39.778;2.710;2024-01-16T17:01:48;9.02;;;4.22;;
54307;SDS011;40208;39.778;2.710;2024-01-16T17:04:33;25.90;;;18.63;;
54307;SDS011;40208;39.778;2.710;2024-01-16T17:07:17;45.17;;;32.38;;
54307;SDS011;40208;39.778;2.710;2024-01-16T17:10:02;53.35;;;34.47;;
54307;SDS011;40208;39.778;2.710;2024-01-16T17:12:47;37.65;;;28.42;;
54307;SDS011;40208;39.778;2.710;2024-01-16T17:15:32;33.38;;;24.95;;
54307;SDS011;40208;39.778;2.710;2024-01-16T17:18:17;29.80;;;18.55;;
54307;SDS011;40208;39.778;2.710;2024-01-16T17:21:02;24.90;;;15.70;;
54307;SDS011;40208;39.778;2.710;2024-01-16T17:23:47;25.02;;;16.13;;
54307;SDS011;40208;39.778;2.710;2024-01-16T17:26:33;26.40;;;18.15;;
54307;SDS011;40208;39.778;2.710;2024-01-16T17:29:18;20.90;;;14.38;;
54307;SDS011;40208;39.778;2.710;2024-01-16T17:32:04;15.15;;;10.55;;
54307;SDS011;40208;39.778;2.710;2024-01-16T17:34:49;15.95;;;10.35;;
54307;SDS011;40208;39.778;2.710;2024-01-16T17:37:33;14.70;;;9.05;;
54307;SDS011;40208;39.778;2.710;2024-01-16T17:40:18;16.05;;;7.88;;
54307;SDS011;40208;39.778;2.710;2024-01-16T17:43:03;21.17;;;10.07;;
54307;SDS011;40208;39.778;2.710;2024-01-16T17:45:49;17.77;;;9.68;;
54307;SDS011;40208;39.778;2.710;2024-01-16T17:48:34;23.98;;;13.38;;
54307;SDS011;40208;39.778;2.710;2024-01-16T17:51:18;22.85;;;11.82;;
54307;SDS011;40208;39.778;2.710;2024-01-16T17:54:04;27.23;;;14.68;;
54307;SDS011;40208;39.778;2.710;2024-01-16T17:56:49;19.02;;;9.73;;
54307;SDS011;40208;39.778;2.710;2024-01-16T17:59:34;17.10;;;8.40;;
54307;SDS011;40208;39.778;2.710;2024-01-16T18:02:20;14.48;;;8.40;;
54307;SDS011;40208;39.778;2.710;2024-01-16T18:05:05;16.38;;;7.78;;
54307;SDS011;40208;39.778;2.710;2024-01-16T18:08:00;11.98;;;7.38;;
54307;SDS011;40208;39.778;2.710;2024-01-16T18:10:45;14.90;;;7.10;;
54307;SDS011;40208;39.778;2.710;2024-01-16T18:13:34;10.02;;;4.97;;
54307;SDS011;40208;39.778;2.710;2024-01-16T18:16:18;11.75;;;5.22;;
54307;SDS011;40208;39.778;2.710;2024-01-16T18:19:03;26.85;;;5.40;;
54307;SDS011;40208;39.778;2.710;2024-01-16T18:21:48;14.10;;;5.55;;
54307;SDS011;40208;39.778;2.710;2024-01-16T18:24:34;10.93;;;5.40;;
54307;SDS011;40208;39.778;2.710;2024-01-16T18:27:19;14.35;;;6.15;;
54307;SDS011;40208;39.778;2.710;2024-01-16T18:30:04;11.82;;;6.80;;
54307;SDS011;40208;39.778;2.710;2024-01-16T18:32:50;14.15;;;8.10;;
54307;SDS011;40208;39.778;2.710;2024-01-16T18:35:34;20.48;;;9.52;;
54307;SDS011;40208;39.778;2.710;2024-01-16T18:38:19;19.27;;;9.13;;
54307;SDS011;40208;39.778;2.710;2024-01-16T18:41:05;15.98;;;9.07;;
54307;SDS011;40208;39.778;2.710;2024-01-16T18:43:50;9.70;;;6.10;;
54307;SDS011;40208;39.778;2.710;2024-01-16T18:46:36;8.63;;;4.38;;
54307;SDS011;40208;39.778;2.710;2024-01-16T18:49:21;7.68;;;3.92;;
54307;SDS011;40208;39.778;2.710;2024-01-16T18:52:06;8.95;;;3.67;;
54307;SDS011;40208;39.778;2.710;2024-01-16T18:54:51;5.90;;;3.22;;
54307;SDS011;40208;39.778;2.710;2024-01-16T18:57:37;7.68;;;2.60;;
54307;SDS011;40208;39.778;2.710;2024-01-16T19:00:23;7.32;;;2.78;;
54307;SDS011;40208;39.778;2.710;2024-01-16T19:03:08;8.20;;;3.22;;
54307;SDS011;40208;39.778;2.710;2024-01-16T19:05:53;7.13;;;3.08;;
54307;SDS011;40208;39.778;2.710;2024-01-16T19:08:40;12.50;;;3.63;;
54307;SDS011;40208;39.778;2.710;2024-01-16T19:11:30;8.00;;;3.13;;
54307;SDS011;40208;39.778;2.710;2024-01-16T19:14:15;11.43;;;2.53;;
54307;SDS011;40208;39.778;2.710;2024-01-16T19:17:01;8.55;;;2.85;;
54307;SDS011;40208;39.778;2.710;2024-01-16T19:19:46;12.73;;;3.38;;
54307;SDS011;40208;39.778;2.710;2024-01-16T19:22:31;11.27;;;3.05;;
54307;SDS011;40208;39.778;2.710;2024-01-16T19:25:16;15.95;;;3.45;;
54307;SDS011;40208;39.778;2.710;2024-01-16T19:28:01;18.95;;;4.25;;
54307;SDS011;40208;39.778;2.710;2024-01-16T19:30:46;15.23;;;4.10;;
54307;SDS011;40208;39.778;2.710;2024-01-16T19:33:31;21.27;;;3.97;;
54307;SDS011;40208;39.778;2.710;2024-01-16T19:36:16;12.73;;;3.85;;
54307;SDS011;40208;39.778;2.710;2024-01-16T19:39:01;24.95;;;4.35;;
54307;SDS011;40208;39.778;2.710;2024-01-16T19:41:46;16.33;;;3.78;;
54307;SDS011;40208;39.778;2.710;2024-01-16T19:44:31;14.23;;;3.92;;